sensor_id;sensor_type;location;lat;lon;timestamp;pressure;altitude;pressure_sealevel;temperature;humidity
79663;BME280;69130;48.724;8.982;2023-05-16T00:02:25;96190.59;;;11.25;96.72
79663;BME280;69130;48.724;8.982;2023-05-16T00:04:51;96187.59;;;11.30;95.99
79663;BME280;69130;48.724;8.982;2023-05-16T00:07:16;96191.06;;;11.19;96.01
79663;BME280;69130;48.724;8.982;2023-05-16T00:09:42;96186.38;;;11.23;95.74
79663;BME280;69130;48.724;8.982;2023-05-16T00:12:07;96184.59;;;11.34;95.15
79663;BME280;69130;48.724;8.982;2023-05-16T00:14:33;96183.88;;;11.32;93.75
79663;BME280;69130;48.724;8.982;2023-05-16T00:17:00;96183.53;;;11.37;94.41
79663;BME280;69130;48.724;8.982;2023-05-16T00:19:26;96183.25;;;11.29;93.98
79663;BME280;69130;48.724;8.982;2023-05-16T00:21:54;96185.91;;;11.29;93.41
79663;BME280;69130;48.724;8.982;2023-05-16T00:24:19;96182.25;;;11.19;94.50
79663;BME280;69130;48.724;8.982;2023-05-16T00:26:45;96186.75;;;11.29;94.18
79663;BME280;69130;48.724;8.982;2023-05-16T00:29:10;96177.94;;;11.18;94.06
79663;BME280;69130;48.724;8.982;2023-05-16T00:31:35;96179.50;;;11.20;94.98
79663;BME280;69130;48.724;8.982;2023-05-16T00:34:01;96172.94;;;11.37;93.74
79663;BME280;69130;48.724;8.982;2023-05-16T00:36:26;96178.31;;;11.24;93.40
79663;BME280;69130;48.724;8.982;2023-05-16T00:38:51;96180.84;;;11.26;92.57
79663;BME280;69130;48.724;8.982;2023-05-16T00:41:17;96177.00;;;11.30;93.12
79663;BME280;69130;48.724;8.982;2023-05-16T00:43:42;96176.75;;;11.22;92.81
79663;BME280;69130;48.724;8.982;2023-05-16T00:46:07;96169.66;;;11.22;92.67
79663;BME280;69130;48.724;8.982;2023-05-16T00:48:33;96177.31;;;11.14;92.92
79663;BME280;69130;48.724;8.982;2023-05-16T00:50:59;96173.81;;;11.14;93.06
79663;BME280;69130;48.724;8.982;2023-05-16T00:53:25;96176.94;;;11.08;92.43
79663;BME280;69130;48.724;8.982;2023-05-16T00:55:51;96179.81;;;11.05;92.31
79663;BME280;69130;48.724;8.982;2023-05-16T00:58:17;96178.84;;;11.06;92.96
79663;BME280;69130;48.724;8.982;2023-05-16T01:00:43;96177.34;;;10.91;93.68
79663;BME280;69130;48.724;8.982;2023-05-16T01:03:09;96178.81;;;10.95;93.07
79663;BME280;69130;48.724;8.982;2023-05-16T01:05:36;96183.75;;;10.99;92.34
79663;BME280;69130;48.724;8.982;2023-05-16T01:08:01;96182.69;;;11.02;93.30
79663;BME280;69130;48.724;8.982;2023-05-16T01:10:31;96186.84;;;10.93;93.51
79663;BME280;69130;48.724;8.982;2023-05-16T01:13:12;96180.78;;;10.80;93.48
79663;BME280;69130;48.724;8.982;2023-05-16T01:15:46;96172.38;;;10.86;93.26
79663;BME280;69130;48.724;8.982;2023-05-16T01:20:55;96177.63;;;10.75;93.64
79663;BME280;69130;48.724;8.982;2023-05-16T01:23:50;96179.13;;;10.67;93.41
79663;BME280;69130;48.724;8.982;2023-05-16T01:26:24;96177.56;;;10.64;94.17
79663;BME280;69130;48.724;8.982;2023-05-16T01:28:51;96186.78;;;10.59;93.53
79663;BME280;69130;48.724;8.982;2023-05-16T01:31:17;96169.63;;;10.64;93.81
79663;BME280;69130;48.724;8.982;2023-05-16T01:33:43;96181.75;;;10.56;94.01
79663;BME280;69130;48.724;8.982;2023-05-16T01:38:47;96180.03;;;10.54;94.27
79663;BME280;69130;48.724;8.982;2023-05-16T01:41:20;96179.75;;;10.46;93.84
79663;BME280;69130;48.724;8.982;2023-05-16T01:43:51;96178.59;;;10.38;94.38
79663;BME280;69130;48.724;8.982;2023-05-16T01:46:24;96179.97;;;10.43;94.54
79663;BME280;69130;48.724;8.982;2023-05-16T01:48:52;96179.75;;;10.46;93.63
79663;BME280;69130;48.724;8.982;2023-05-16T01:51:21;96175.94;;;10.38;93.88
79663;BME280;69130;48.724;8.982;2023-05-16T01:53:49;96178.41;;;10.28;94.71
79663;BME280;69130;48.724;8.982;2023-05-16T01:56:17;96179.69;;;10.23;94.69
79663;BME280;69130;48.724;8.982;2023-05-16T01:58:43;96179.59;;;10.24;94.66
79663;BME280;69130;48.724;8.982;2023-05-16T02:01:12;96177.25;;;10.07;94.88
79663;BME280;69130;48.724;8.982;2023-05-16T02:03:37;96184.88;;;9.99;95.55
79663;BME280;69130;48.724;8.982;2023-05-16T02:06:03;96189.44;;;9.85;95.90
79663;BME280;69130;48.724;8.982;2023-05-16T02:08:29;96190.19;;;9.74;96.48
79663;BME280;69130;48.724;8.982;2023-05-16T02:10:55;96184.06;;;9.74;96.83
79663;BME280;69130;48.724;8.982;2023-05-16T02:13:20;96193.47;;;9.65;97.01
79663;BME280;69130;48.724;8.982;2023-05-16T02:15:46;96190.00;;;9.64;96.98
79663;BME280;69130;48.724;8.982;2023-05-16T02:18:11;96196.00;;;9.54;97.31
79663;BME280;69130;48.724;8.982;2023-05-16T02:20:37;96195.56;;;9.47;97.92
79663;BME280;69130;48.724;8.982;2023-05-16T02:23:03;96202.00;;;9.43;97.94
79663;BME280;69130;48.724;8.982;2023-05-16T02:25:29;96204.97;;;9.39;98.22
79663;BME280;69130;48.724;8.982;2023-05-16T02:27:54;96206.03;;;9.36;98.77
79663;BME280;69130;48.724;8.982;2023-05-16T02:30:20;96204.75;;;9.42;98.83
79663;BME280;69130;48.724;8.982;2023-05-16T02:32:45;96198.75;;;9.52;98.91
79663;BME280;69130;48.724;8.982;2023-05-16T02:35:13;96197.19;;;9.62;98.08
79663;BME280;69130;48.724;8.982;2023-05-16T02:37:39;96200.00;;;9.59;98.08
79663;BME280;69130;48.724;8.982;2023-05-16T02:40:05;96192.19;;;9.58;97.99
79663;BME280;69130;48.724;8.982;2023-05-16T02:42:31;96197.47;;;9.58;98.07
79663;BME280;69130;48.724;8.982;2023-05-16T02:44:56;96199.16;;;9.59;98.17
79663;BME280;69130;48.724;8.982;2023-05-16T02:47:22;96190.94;;;9.76;98.09
79663;BME280;69130;48.724;8.982;2023-05-16T02:49:47;96192.00;;;9.74;97.73
79663;BME280;69130;48.724;8.982;2023-05-16T02:52:13;96198.88;;;9.76;97.03
79663;BME280;69130;48.724;8.982;2023-05-16T02:54:38;96186.28;;;9.67;97.61
79663;BME280;69130;48.724;8.982;2023-05-16T02:57:03;96184.38;;;9.69;97.99
79663;BME280;69130;48.724;8.982;2023-05-16T02:59:29;96185.53;;;9.65;97.73
79663;BME280;69130;48.724;8.982;2023-05-16T03:01:54;96187.53;;;9.61;97.45
79663;BME280;69130;48.724;8.982;2023-05-16T03:04:20;96184.78;;;9.63;98.26
79663;BME280;69130;48.724;8.982;2023-05-16T03:06:45;96186.38;;;9.65;98.01
79663;BME280;69130;48.724;8.982;2023-05-16T03:09:11;96189.34;;;9.61;98.18
79663;BME280;69130;48.724;8.982;2023-05-16T03:11:36;96189.03;;;9.65;98.01
79663;BME280;69130;48.724;8.982;2023-05-16T03:14:02;96191.25;;;9.59;98.27
79663;BME280;69130;48.724;8.982;2023-05-16T03:16:27;96183.41;;;9.57;98.59
79663;BME280;69130;48.724;8.982;2023-05-16T03:18:52;96189.47;;;9.72;98.34
79663;BME280;69130;48.724;8.982;2023-05-16T03:21:18;96188.59;;;9.72;98.33
79663;BME280;69130;48.724;8.982;2023-05-16T03:23:43;96201.19;;;9.68;98.54
79663;BME280;69130;48.724;8.982;2023-05-16T03:26:09;96202.66;;;9.72;98.49
79663;BME280;69130;48.724;8.982;2023-05-16T03:28:34;96192.09;;;9.72;98.51
79663;BME280;69130;48.724;8.982;2023-05-16T03:31:00;96196.75;;;9.81;98.71
79663;BME280;69130;48.724;8.982;2023-05-16T03:33:25;96200.13;;;9.83;98.67
79663;BME280;69130;48.724;8.982;2023-05-16T03:35:51;96198.53;;;9.81;98.63
79663;BME280;69130;48.724;8.982;2023-05-16T03:38:16;96192.38;;;9.93;98.30
79663;BME280;69130;48.724;8.982;2023-05-16T03:40:42;96197.06;;;10.02;98.38
79663;BME280;69130;48.724;8.982;2023-05-16T03:43:07;96192.38;;;10.05;98.21
79663;BME280;69130;48.724;8.982;2023-05-16T03:45:32;96194.91;;;10.07;98.37
79663;BME280;69130;48.724;8.982;2023-05-16T03:47:58;96194.06;;;10.06;97.91
79663;BME280;69130;48.724;8.982;2023-05-16T03:50:24;96193.25;;;10.06;97.80
79663;BME280;69130;48.724;8.982;2023-05-16T03:52:49;96188.28;;;10.14;98.14
79663;BME280;69130;48.724;8.982;2023-05-16T03:55:18;96188.78;;;10.06;97.97
79663;BME280;69130;48.724;8.982;2023-05-16T03:57:44;96192.72;;;10.13;98.09
79663;BME280;69130;48.724;8.982;2023-05-16T04:00:11;96192.50;;;10.16;97.88
79663;BME280;69130;48.724;8.982;2023-05-16T04:02:37;96196.13;;;10.15;98.01
79663;BME280;69130;48.724;8.982;2023-05-16T04:05:08;96190.38;;;10.21;97.84
79663;BME280;69130;48.724;8.982;2023-05-16T04:07:34;96195.38;;;10.26;97.91
79663;BME280;69130;48.724;8.982;2023-05-16T04:09:59;96200.34;;;10.18;97.28
79663;BME280;69130;48.724;8.982;2023-05-16T04:12:24;96199.06;;;10.23;98.04
79663;BME280;69130;48.724;8.982;2023-05-16T04:14:50;96201.38;;;10.28;98.26
79663;BME280;69130;48.724;8.982;2023-05-16T04:17:15;96202.66;;;10.22;97.72
79663;BME280;69130;48.724;8.982;2023-05-16T04:19:41;96205.09;;;10.25;97.82
79663;BME280;69130;48.724;8.982;2023-05-16T04:22:06;96206.69;;;10.28;97.64
79663;BME280;69130;48.724;8.982;2023-05-16T04:24:32;96211.31;;;10.24;97.82
79663;BME280;69130;48.724;8.982;2023-05-16T04:26:57;96206.88;;;10.25;98.19
79663;BME280;69130;48.724;8.982;2023-05-16T04:29:23;96213.34;;;10.21;97.86
79663;BME280;69130;48.724;8.982;2023-05-16T04:31:48;96216.91;;;10.32;97.93
79663;BME280;69130;48.724;8.982;2023-05-16T04:34:13;96210.13;;;10.28;97.86
79663;BME280;69130;48.724;8.982;2023-05-16T04:36:40;96213.31;;;10.33;97.76
79663;BME280;69130;48.724;8.982;2023-05-16T04:39:06;96208.34;;;10.41;97.62
79663;BME280;69130;48.724;8.982;2023-05-16T04:41:31;96208.09;;;10.44;97.75
79663;BME280;69130;48.724;8.982;2023-05-16T04:43:57;96209.28;;;10.40;97.19
79663;BME280;69130;48.724;8.982;2023-05-16T04:46:23;96216.03;;;10.44;97.41
79663;BME280;69130;48.724;8.982;2023-05-16T04:48:48;96212.53;;;10.44;97.89
79663;BME280;69130;48.724;8.982;2023-05-16T04:51:13;96216.88;;;10.45;97.93
79663;BME280;69130;48.724;8.982;2023-05-16T04:53:39;96227.47;;;10.45;97.89
79663;BME280;69130;48.724;8.982;2023-05-16T04:56:04;96227.22;;;10.48;97.63
79663;BME280;69130;48.724;8.982;2023-05-16T04:58:30;96224.88;;;10.56;97.17
79663;BME280;69130;48.724;8.982;2023-05-16T05:00:56;96232.81;;;10.56;97.10
79663;BME280;69130;48.724;8.982;2023-05-16T05:03:22;96234.22;;;10.49;97.71
79663;BME280;69130;48.724;8.982;2023-05-16T05:05:47;96231.16;;;10.55;97.21
79663;BME280;69130;48.724;8.982;2023-05-16T05:08:13;96232.75;;;10.45;97.67
79663;BME280;69130;48.724;8.982;2023-05-16T05:10:39;96242.06;;;10.50;97.89
79663;BME280;69130;48.724;8.982;2023-05-16T05:13:04;96249.88;;;10.52;97.72
79663;BME280;69130;48.724;8.982;2023-05-16T05:15:30;96247.97;;;10.54;97.44
79663;BME280;69130;48.724;8.982;2023-05-16T05:17:55;96247.78;;;10.44;96.98
79663;BME280;69130;48.724;8.982;2023-05-16T05:20:20;96243.97;;;10.48;97.18
79663;BME280;69130;48.724;8.982;2023-05-16T05:22:46;96250.22;;;10.47;97.20
79663;BME280;69130;48.724;8.982;2023-05-16T05:25:13;96250.00;;;10.50;97.01
79663;BME280;69130;48.724;8.982;2023-05-16T05:27:38;96260.69;;;10.49;96.88
79663;BME280;69130;48.724;8.982;2023-05-16T05:30:04;96255.69;;;10.57;97.74
79663;BME280;69130;48.724;8.982;2023-05-16T05:32:30;96250.41;;;10.57;96.69
79663;BME280;69130;48.724;8.982;2023-05-16T05:34:55;96250.16;;;10.60;96.49
79663;BME280;69130;48.724;8.982;2023-05-16T05:37:20;96254.91;;;10.68;96.71
79663;BME280;69130;48.724;8.982;2023-05-16T05:39:46;96249.63;;;10.68;96.83
79663;BME280;69130;48.724;8.982;2023-05-16T05:42:11;96250.47;;;10.68;96.63
79663;BME280;69130;48.724;8.982;2023-05-16T05:44:37;96251.66;;;10.64;96.73
79663;BME280;69130;48.724;8.982;2023-05-16T05:47:03;96239.03;;;10.68;95.65
79663;BME280;69130;48.724;8.982;2023-05-16T05:49:30;96252.06;;;10.71;96.31
79663;BME280;69130;48.724;8.982;2023-05-16T05:51:55;96242.22;;;10.73;96.46
79663;BME280;69130;48.724;8.982;2023-05-16T05:54:22;96246.31;;;10.77;96.11
79663;BME280;69130;48.724;8.982;2023-05-16T05:56:47;96245.75;;;10.84;96.48
79663;BME280;69130;48.724;8.982;2023-05-16T05:59:13;96246.25;;;10.89;96.08
79663;BME280;69130;48.724;8.982;2023-05-16T06:01:38;96252.09;;;10.94;95.24
79663;BME280;69130;48.724;8.982;2023-05-16T06:04:04;96252.94;;;10.95;94.96
79663;BME280;69130;48.724;8.982;2023-05-16T06:06:30;96251.34;;;10.92;95.32
79663;BME280;69130;48.724;8.982;2023-05-16T06:08:56;96252.94;;;10.95;95.20
79663;BME280;69130;48.724;8.982;2023-05-16T06:11:21;96260.44;;;11.01;94.86
79663;BME280;69130;48.724;8.982;2023-05-16T06:13:47;96269.44;;;10.98;94.43
79663;BME280;69130;48.724;8.982;2023-05-16T06:16:12;96268.81;;;10.95;95.17
79663;BME280;69130;48.724;8.982;2023-05-16T06:18:38;96263.53;;;10.95;94.77
79663;BME280;69130;48.724;8.982;2023-05-16T06:21:04;96274.50;;;11.01;94.61
79663;BME280;69130;48.724;8.982;2023-05-16T06:23:30;96274.91;;;11.08;94.82
79663;BME280;69130;48.724;8.982;2023-05-16T06:25:55;96277.50;;;11.20;93.73
79663;BME280;69130;48.724;8.982;2023-05-16T06:28:21;96276.94;;;11.28;94.15
79663;BME280;69130;48.724;8.982;2023-05-16T06:30:48;96273.31;;;11.29;92.91
79663;BME280;69130;48.724;8.982;2023-05-16T06:33:16;96275.19;;;11.39;92.63
79663;BME280;69130;48.724;8.982;2023-05-16T06:35:41;96272.19;;;11.44;92.73
79663;BME280;69130;48.724;8.982;2023-05-16T06:38:06;96273.38;;;11.40;91.74
79663;BME280;69130;48.724;8.982;2023-05-16T06:40:32;96271.66;;;11.39;92.55
79663;BME280;69130;48.724;8.982;2023-05-16T06:42:57;96277.69;;;11.41;92.50
79663;BME280;69130;48.724;8.982;2023-05-16T06:45:23;96287.63;;;11.50;92.74
79663;BME280;69130;48.724;8.982;2023-05-16T06:47:48;96283.41;;;11.48;91.95
79663;BME280;69130;48.724;8.982;2023-05-16T06:50:13;96286.72;;;11.38;92.40
79663;BME280;69130;48.724;8.982;2023-05-16T06:52:39;96290.78;;;11.31;92.13
79663;BME280;69130;48.724;8.982;2023-05-16T06:55:06;96292.09;;;11.26;92.34
79663;BME280;69130;48.724;8.982;2023-05-16T06:57:31;96293.47;;;11.19;92.83
79663;BME280;69130;48.724;8.982;2023-05-16T06:59:57;96292.75;;;11.17;92.95
79663;BME280;69130;48.724;8.982;2023-05-16T07:02:22;96293.00;;;11.14;92.43
79663;BME280;69130;48.724;8.982;2023-05-16T07:04:47;96297.13;;;11.05;92.57
79663;BME280;69130;48.724;8.982;2023-05-16T07:07:13;96298.97;;;11.05;92.32
79663;BME280;69130;48.724;8.982;2023-05-16T07:09:39;96297.13;;;11.05;92.34
79663;BME280;69130;48.724;8.982;2023-05-16T07:12:04;96299.72;;;10.94;93.46
79663;BME280;69130;48.724;8.982;2023-05-16T07:14:30;96306.94;;;10.92;93.93
79663;BME280;69130;48.724;8.982;2023-05-16T07:16:55;96310.97;;;10.85;94.10
79663;BME280;69130;48.724;8.982;2023-05-16T07:19:21;96302.84;;;10.76;94.14
79663;BME280;69130;48.724;8.982;2023-05-16T07:21:46;96315.94;;;10.90;93.50
79663;BME280;69130;48.724;8.982;2023-05-16T07:24:11;96315.09;;;10.89;93.45
79663;BME280;69130;48.724;8.982;2023-05-16T07:26:37;96312.13;;;10.94;93.08
79663;BME280;69130;48.724;8.982;2023-05-16T07:29:02;96317.13;;;10.86;93.62
79663;BME280;69130;48.724;8.982;2023-05-16T07:31:28;96313.09;;;10.93;93.69
79663;BME280;69130;48.724;8.982;2023-05-16T07:33:55;96320.25;;;11.03;93.58
79663;BME280;69130;48.724;8.982;2023-05-16T07:36:21;96319.28;;;11.04;92.17
79663;BME280;69130;48.724;8.982;2023-05-16T07:38:46;96318.56;;;11.02;92.86
79663;BME280;69130;48.724;8.982;2023-05-16T07:41:12;96331.25;;;10.97;91.98
79663;BME280;69130;48.724;8.982;2023-05-16T07:43:37;96323.91;;;11.13;92.48
79663;BME280;69130;48.724;8.982;2023-05-16T07:46:04;96325.19;;;11.20;91.60
79663;BME280;69130;48.724;8.982;2023-05-16T07:48:29;96319.16;;;11.18;91.80
79663;BME280;69130;48.724;8.982;2023-05-16T07:50:55;96321.94;;;11.04;91.92
79663;BME280;69130;48.724;8.982;2023-05-16T07:53:20;96317.28;;;10.95;92.65
79663;BME280;69130;48.724;8.982;2023-05-16T07:55:46;96326.53;;;10.90;93.19
79663;BME280;69130;48.724;8.982;2023-05-16T07:58:12;96325.59;;;10.91;93.13
79663;BME280;69130;48.724;8.982;2023-05-16T08:00:37;96328.28;;;11.02;93.08
79663;BME280;69130;48.724;8.982;2023-05-16T08:03:03;96324.22;;;11.21;92.74
79663;BME280;69130;48.724;8.982;2023-05-16T08:05:28;96319.16;;;11.42;91.69
79663;BME280;69130;48.724;8.982;2023-05-16T08:07:53;96321.38;;;11.59;91.11
79663;BME280;69130;48.724;8.982;2023-05-16T08:10:19;96326.22;;;11.65;90.27
79663;BME280;69130;48.724;8.982;2023-05-16T08:12:44;96335.09;;;11.53;89.73
79663;BME280;69130;48.724;8.982;2023-05-16T08:15:10;96329.97;;;11.39;90.68
79663;BME280;69130;48.724;8.982;2023-05-16T08:17:35;96330.06;;;11.37;91.18
79663;BME280;69130;48.724;8.982;2023-05-16T08:20:02;96332.31;;;11.07;91.44
79663;BME280;69130;48.724;8.982;2023-05-16T08:22:28;96335.75;;;10.97;92.33
79663;BME280;69130;48.724;8.982;2023-05-16T08:24:53;96340.50;;;10.92;93.06
79663;BME280;69130;48.724;8.982;2023-05-16T08:27:22;96345.06;;;10.90;92.91
79663;BME280;69130;48.724;8.982;2023-05-16T08:29:48;96339.56;;;10.93;93.18
79663;BME280;69130;48.724;8.982;2023-05-16T08:32:13;96342.66;;;10.87;93.40
79663;BME280;69130;48.724;8.982;2023-05-16T08:34:38;96337.03;;;10.79;93.66
79663;BME280;69130;48.724;8.982;2023-05-16T08:37:04;96342.34;;;10.79;94.46
79663;BME280;69130;48.724;8.982;2023-05-16T08:39:29;96344.75;;;10.82;93.95
79663;BME280;69130;48.724;8.982;2023-05-16T08:41:54;96342.34;;;10.79;94.04
79663;BME280;69130;48.724;8.982;2023-05-16T08:44:20;96343.31;;;10.65;93.87
79663;BME280;69130;48.724;8.982;2023-05-16T08:46:52;96346.69;;;10.67;94.37
79663;BME280;69130;48.724;8.982;2023-05-16T08:49:19;96353.91;;;10.65;93.67
79663;BME280;69130;48.724;8.982;2023-05-16T08:51:47;96351.03;;;10.68;93.93
79663;BME280;69130;48.724;8.982;2023-05-16T08:54:14;96351.34;;;10.76;93.90
79663;BME280;69130;48.724;8.982;2023-05-16T08:56:40;96352.06;;;10.91;94.43
79663;BME280;69130;48.724;8.982;2023-05-16T08:59:06;96351.94;;;10.92;92.89
79663;BME280;69130;48.724;8.982;2023-05-16T09:01:32;96358.91;;;11.06;93.05
79663;BME280;69130;48.724;8.982;2023-05-16T09:03:58;96357.09;;;11.06;92.36
79663;BME280;69130;48.724;8.982;2023-05-16T09:06:25;96363.34;;;11.05;91.90
79663;BME280;69130;48.724;8.982;2023-05-16T09:08:51;96353.78;;;11.15;92.40
79663;BME280;69130;48.724;8.982;2023-05-16T09:11:17;96360.88;;;11.15;92.14
79663;BME280;69130;48.724;8.982;2023-05-16T09:13:43;96363.59;;;11.26;91.69
79663;BME280;69130;48.724;8.982;2023-05-16T09:16:15;96361.59;;;11.17;91.28
79663;BME280;69130;48.724;8.982;2023-05-16T09:18:46;96355.38;;;11.18;91.83
79663;BME280;69130;48.724;8.982;2023-05-16T09:21:16;96364.06;;;11.20;90.63
79663;BME280;69130;48.724;8.982;2023-05-16T09:23:42;96375.38;;;11.22;91.76
79663;BME280;69130;48.724;8.982;2023-05-16T09:26:08;96360.56;;;11.43;91.65
79663;BME280;69130;48.724;8.982;2023-05-16T09:28:36;96364.84;;;11.57;90.82
79663;BME280;69130;48.724;8.982;2023-05-16T09:31:02;96363.06;;;11.81;89.57
79663;BME280;69130;48.724;8.982;2023-05-16T09:33:28;96356.34;;;11.88;88.92
79663;BME280;69130;48.724;8.982;2023-05-16T09:38:20;96356.16;;;12.02;87.54
79663;BME280;69130;48.724;8.982;2023-05-16T09:40:45;96355.22;;;12.03;87.50
79663;BME280;69130;48.724;8.982;2023-05-16T09:43:14;96353.44;;;12.14;87.13
79663;BME280;69130;48.724;8.982;2023-05-16T09:45:44;96357.09;;;12.36;86.95
79663;BME280;69130;48.724;8.982;2023-05-16T09:48:10;96359.00;;;12.34;86.37
79663;BME280;69130;48.724;8.982;2023-05-16T09:50:39;96356.16;;;12.48;85.65
79663;BME280;69130;48.724;8.982;2023-05-16T09:53:05;96354.94;;;12.52;86.51
79663;BME280;69130;48.724;8.982;2023-05-16T09:55:30;96346.88;;;12.64;85.24
79663;BME280;69130;48.724;8.982;2023-05-16T09:57:56;96360.03;;;12.66;85.44
79663;BME280;69130;48.724;8.982;2023-05-16T10:00:22;96351.56;;;12.39;85.05
79663;BME280;69130;48.724;8.982;2023-05-16T10:02:55;96345.41;;;12.38;85.25
79663;BME280;69130;48.724;8.982;2023-05-16T10:05:21;96349.97;;;12.36;85.95
79663;BME280;69130;48.724;8.982;2023-05-16T10:07:47;96346.25;;;12.39;85.94
79663;BME280;69130;48.724;8.982;2023-05-16T10:10:14;96337.81;;;12.67;84.76
79663;BME280;69130;48.724;8.982;2023-05-16T10:12:39;96346.25;;;12.83;84.21
79663;BME280;69130;48.724;8.982;2023-05-16T10:15:06;96345.06;;;12.65;84.69
79663;BME280;69130;48.724;8.982;2023-05-16T10:17:34;96351.22;;;12.65;85.55
79663;BME280;69130;48.724;8.982;2023-05-16T10:20:02;96345.56;;;12.70;85.26
79663;BME280;69130;48.724;8.982;2023-05-16T10:22:33;96347.09;;;12.61;86.07
79663;BME280;69130;48.724;8.982;2023-05-16T10:25:07;96338.81;;;12.88;85.42
79663;BME280;69130;48.724;8.982;2023-05-16T10:27:36;96347.59;;;12.77;84.17
79663;BME280;69130;48.724;8.982;2023-05-16T10:30:04;96337.72;;;12.68;84.90
79663;BME280;69130;48.724;8.982;2023-05-16T10:32:31;96352.91;;;12.77;84.69
79663;BME280;69130;48.724;8.982;2023-05-16T10:34:57;96351.75;;;13.03;83.73
79663;BME280;69130;48.724;8.982;2023-05-16T10:37:28;96360.53;;;13.15;83.06
79663;BME280;69130;48.724;8.982;2023-05-16T10:39:54;96353.75;;;13.22;81.96
79663;BME280;69130;48.724;8.982;2023-05-16T10:42:19;96354.25;;;13.27;82.34
79663;BME280;69130;48.724;8.982;2023-05-16T10:44:45;96347.63;;;13.22;82.06
79663;BME280;69130;48.724;8.982;2023-05-16T10:47:10;96352.66;;;13.02;82.28
79663;BME280;69130;48.724;8.982;2023-05-16T10:49:39;96351.81;;;12.91;82.55
79663;BME280;69130;48.724;8.982;2023-05-16T10:52:09;96358.59;;;12.84;82.27
79663;BME280;69130;48.724;8.982;2023-05-16T10:54:39;96351.00;;;13.24;82.75
79663;BME280;69130;48.724;8.982;2023-05-16T10:57:07;96352.78;;;13.23;81.16
79663;BME280;69130;48.724;8.982;2023-05-16T10:59:53;96354.59;;;13.34;80.84
79663;BME280;69130;48.724;8.982;2023-05-16T11:02:40;96357.59;;;13.40;81.07
79663;BME280;69130;48.724;8.982;2023-05-16T11:05:05;96360.28;;;13.18;81.71
79663;BME280;69130;48.724;8.982;2023-05-16T11:07:37;96356.66;;;12.75;83.07
79663;BME280;69130;48.724;8.982;2023-05-16T11:10:10;96367.38;;;12.73;83.26
79663;BME280;69130;48.724;8.982;2023-05-16T11:15:30;96368.72;;;12.68;83.38
79663;BME280;69130;48.724;8.982;2023-05-16T11:18:22;96370.66;;;12.88;84.33
79663;BME280;69130;48.724;8.982;2023-05-16T11:20:50;96372.31;;;12.45;83.86
79663;BME280;69130;48.724;8.982;2023-05-16T11:25:42;96379.34;;;12.11;85.43
79663;BME280;69130;48.724;8.982;2023-05-16T11:28:11;96381.47;;;12.06;86.02
79663;BME280;69130;48.724;8.982;2023-05-16T11:30:41;96383.66;;;12.01;85.24
79663;BME280;69130;48.724;8.982;2023-05-16T11:33:07;96385.78;;;11.96;85.54
79663;BME280;69130;48.724;8.982;2023-05-16T11:35:33;96392.47;;;12.01;86.33
79663;BME280;69130;48.724;8.982;2023-05-16T11:37:58;96389.28;;;11.96;85.98
79663;BME280;69130;48.724;8.982;2023-05-16T11:40:25;96394.25;;;12.01;86.17
79663;BME280;69130;48.724;8.982;2023-05-16T11:42:51;96392.34;;;12.03;85.91
79663;BME280;69130;48.724;8.982;2023-05-16T11:45:18;96399.31;;;12.04;86.06
79663;BME280;69130;48.724;8.982;2023-05-16T11:47:46;96397.63;;;12.03;85.75
79663;BME280;69130;48.724;8.982;2023-05-16T11:50:17;96401.50;;;12.10;85.92
79663;BME280;69130;48.724;8.982;2023-05-16T11:52:50;96397.41;;;12.06;85.23
79663;BME280;69130;48.724;8.982;2023-05-16T11:55:19;96397.81;;;11.89;84.11
79663;BME280;69130;48.724;8.982;2023-05-16T11:57:46;96404.88;;;11.77;85.34
79663;BME280;69130;48.724;8.982;2023-05-16T12:00:16;96397.78;;;11.78;84.99
79663;BME280;69130;48.724;8.982;2023-05-16T12:02:43;96402.69;;;11.71;86.05
79663;BME280;69130;48.724;8.982;2023-05-16T12:05:09;96403.75;;;11.69;85.56
79663;BME280;69130;48.724;8.982;2023-05-16T12:07:35;96403.41;;;11.73;86.60
79663;BME280;69130;48.724;8.982;2023-05-16T12:12:31;96407.75;;;11.74;87.53
79663;BME280;69130;48.724;8.982;2023-05-16T12:14:57;96409.66;;;11.72;87.10
79663;BME280;69130;48.724;8.982;2023-05-16T12:17:22;96416.44;;;11.76;86.79
79663;BME280;69130;48.724;8.982;2023-05-16T12:19:48;96417.78;;;11.58;87.25
79663;BME280;69130;48.724;8.982;2023-05-16T12:22:15;96409.53;;;11.50;87.66
79663;BME280;69130;48.724;8.982;2023-05-16T12:24:42;96420.31;;;11.47;88.15
79663;BME280;69130;48.724;8.982;2023-05-16T12:27:08;96418.72;;;11.57;87.21
79663;BME280;69130;48.724;8.982;2023-05-16T12:29:33;96412.00;;;11.64;86.25
79663;BME280;69130;48.724;8.982;2023-05-16T12:31:59;96408.72;;;11.61;86.87
79663;BME280;69130;48.724;8.982;2023-05-16T12:34:27;96413.13;;;11.49;86.43
79663;BME280;69130;48.724;8.982;2023-05-16T12:36:53;96419.84;;;11.29;87.33
79663;BME280;69130;48.724;8.982;2023-05-16T12:39:19;96429.09;;;11.24;88.16
79663;BME280;69130;48.724;8.982;2023-05-16T12:41:45;96432.97;;;10.95;88.46
79663;BME280;69130;48.724;8.982;2023-05-16T12:46:40;96432.13;;;10.69;89.79
79663;BME280;69130;48.724;8.982;2023-05-16T12:49:06;96429.25;;;10.47;90.63
79663;BME280;69130;48.724;8.982;2023-05-16T12:51:32;96440.22;;;10.28;91.14
79663;BME280;69130;48.724;8.982;2023-05-16T12:54:07;96446.25;;;10.18;91.71
79663;BME280;69130;48.724;8.982;2023-05-16T12:56:32;96437.75;;;10.13;92.46
79663;BME280;69130;48.724;8.982;2023-05-16T12:58:57;96448.69;;;10.07;92.25
79663;BME280;69130;48.724;8.982;2023-05-16T13:01:23;96442.78;;;10.03;93.30
79663;BME280;69130;48.724;8.982;2023-05-16T13:03:48;96447.59;;;10.11;93.47
79663;BME280;69130;48.724;8.982;2023-05-16T13:06:13;96450.59;;;10.05;92.54
79663;BME280;69130;48.724;8.982;2023-05-16T13:08:39;96449.72;;;9.92;91.43
79663;BME280;69130;48.724;8.982;2023-05-16T13:11:04;96445.94;;;10.08;91.65
79663;BME280;69130;48.724;8.982;2023-05-16T13:13:30;96451.59;;;10.16;90.89
79663;BME280;69130;48.724;8.982;2023-05-16T13:15:55;96447.41;;;10.26;90.71
79663;BME280;69130;48.724;8.982;2023-05-16T13:18:21;96465.09;;;10.38;90.45